createdAt,value
2019-04-03T00:02:00.676Z,96372.27
2019-04-03T00:04:27.660Z,96374.66
2019-04-03T00:06:54.642Z,96372.53
2019-04-03T00:09:21.719Z,96371.22
2019-04-03T00:11:48.935Z,96374.37
2019-04-03T00:14:15.965Z,96367.30
2019-04-03T00:16:43.735Z,96367.30
2019-04-03T00:19:11.690Z,96373.34
2019-04-03T00:21:38.901Z,96365.98
2019-04-03T00:24:05.912Z,96370.44
2019-04-03T00:26:33.048Z,96356.83
2019-04-03T00:29:00.097Z,96359.97
2019-04-03T00:31:27.070Z,96361.28
2019-04-03T00:33:54.091Z,96363.37
2019-04-03T00:36:22.886Z,96365.20
2019-04-03T00:38:49.806Z,96367.82
2019-04-03T00:41:17.019Z,96363.89
2019-04-03T00:43:44.028Z,96357.34
2019-04-03T00:46:11.119Z,96356.04
2019-04-03T00:48:38.196Z,96362.88
2019-04-03T00:51:05.226Z,96361.80
2019-04-03T00:53:32.254Z,96357.34
2019-04-03T00:55:59.237Z,96355.52
2019-04-03T00:58:26.327Z,96346.88
2019-04-03T01:00:55.946Z,96350.02
2019-04-03T01:03:22.310Z,96344.26
2019-04-03T01:05:49.323Z,96342.95
2019-04-03T01:08:16.404Z,96346.09
2019-04-03T01:10:43.658Z,96345.56
2019-04-03T01:13:10.685Z,96339.02
2019-04-03T01:15:37.659Z,96338.23
2019-04-03T01:18:05.176Z,96330.64
2019-04-03T01:20:32.288Z,96334.57
2019-04-03T01:22:59.232Z,96326.45
2019-04-03T01:25:26.343Z,96324.63
2019-04-03T01:27:53.311Z,96318.60
2019-04-03T01:30:20.378Z,96318.08
2019-04-03T01:32:47.283Z,96305.52
2019-04-03T01:35:15.715Z,96318.60
2019-04-03T01:37:42.812Z,96317.55
2019-04-03T01:40:09.796Z,96314.67
2019-04-03T01:42:36.700Z,96317.30
2019-04-03T01:45:03.758Z,96305.52
2019-04-03T01:47:30.730Z,96308.91
2019-04-03T01:49:58.764Z,96312.84
2019-04-03T01:52:26.088Z,96317.06
2019-04-03T01:54:53.004Z,96320.46
2019-04-03T01:57:19.946Z,96320.70
2019-04-03T01:59:47.142Z,96314.16
2019-04-03T02:02:14.176Z,96314.67
2019-04-03T02:04:42.677Z,96316.24
2019-04-03T02:07:09.792Z,96311.01
2019-04-03T02:09:36.721Z,96304.20
2019-04-03T02:12:03.726Z,96300.28
2019-04-03T02:14:30.596Z,96302.38
2019-04-03T02:16:57.530Z,96306.30
2019-04-03T02:19:26.111Z,96302.38
2019-04-03T02:21:53.076Z,96307.89
2019-04-03T02:24:20.134Z,96304.47
2019-04-03T02:26:47.017Z,96301.59
2019-04-03T02:29:13.963Z,96301.06
2019-04-03T02:31:40.892Z,96295.56
2019-04-03T02:34:07.793Z,96296.35
2019-04-03T02:36:34.834Z,96300.28
2019-04-03T02:39:01.757Z,96302.38
2019-04-03T02:41:28.947Z,96301.06
2019-04-03T02:43:56.097Z,96298.97
2019-04-03T02:46:23.089Z,96302.89
2019-04-03T02:48:50.022Z,96304.47
2019-04-03T02:51:19.797Z,96299.23
2019-04-03T02:53:45.582Z,96301.84
2019-04-03T02:56:13.742Z,96298.97
2019-04-03T02:58:40.842Z,96300.28
2019-04-03T03:01:07.956Z,96295.83
2019-04-03T03:03:34.988Z,96296.35
2019-04-03T03:06:01.915Z,96297.13
2019-04-03T03:08:28.945Z,96289.55
2019-04-03T03:10:55.856Z,96285.36
2019-04-03T03:13:22.775Z,96277.24
2019-04-03T03:15:49.782Z,96277.77
2019-04-03T03:18:16.753Z,96272.78
2019-04-03T03:20:43.871Z,96272.00
2019-04-03T03:23:10.806Z,96282.48
2019-04-03T03:25:37.818Z,96279.86
2019-04-03T03:28:05.094Z,96281.95
2019-04-03T03:30:41.586Z,96278.55
2019-04-03T03:33:21.670Z,96281.95
2019-04-03T03:35:38.464Z,96287.71
2019-04-03T03:37:57.796Z,96289.02
2019-04-03T03:40:24.753Z,96294.52
2019-04-03T03:42:51.706Z,96292.95
2019-04-03T03:45:20.584Z,96282.22
2019-04-03T03:47:47.215Z,96271.22
2019-04-03T03:50:14.121Z,96262.31
2019-04-03T03:52:41.045Z,96247.66
2019-04-03T03:55:08.377Z,96247.13
2019-04-03T03:57:37.982Z,96233.27
2019-04-03T04:00:04.396Z,96248.45
2019-04-03T04:02:31.555Z,96248.45
2019-04-03T04:04:58.507Z,96255.52
2019-04-03T04:07:25.979Z,96255.52
2019-04-03T04:09:53.233Z,96261.01
2019-04-03T04:12:20.300Z,96256.82
2019-04-03T04:14:47.443Z,96257.61
2019-04-03T04:17:16.789Z,96258.13
2019-04-03T04:19:42.932Z,96256.30
2019-04-03T04:22:09.924Z,96258.91
2019-04-03T04:24:36.839Z,96266.24
2019-04-03T04:27:03.810Z,96269.39
2019-04-03T04:29:30.719Z,96270.70
2019-04-03T04:31:57.846Z,96262.06
2019-04-03T04:34:24.913Z,96255.52
2019-04-03T04:36:53.060Z,96247.66
2019-04-03T04:39:20.524Z,96255.77
2019-04-03T04:41:47.448Z,96258.39
2019-04-03T04:44:15.208Z,96256.04
2019-04-03T04:46:44.182Z,96262.06
2019-04-03T04:49:10.834Z,96256.04
2019-04-03T04:51:37.999Z,96251.84
2019-04-03T04:54:05.204Z,96246.88
2019-04-03T04:56:32.241Z,96245.83
2019-04-03T04:58:59.333Z,96241.11
2019-04-03T05:01:26.445Z,96241.11
2019-04-03T05:03:54.246Z,96238.50
2019-04-03T05:06:21.577Z,96231.95
2019-04-03T05:08:48.504Z,96232.73
2019-04-03T05:11:15.421Z,96237.97
2019-04-03T05:13:42.394Z,96242.69
2019-04-03T05:16:09.352Z,96241.90
2019-04-03T05:18:36.535Z,96231.42
2019-04-03T05:21:03.433Z,96229.59
2019-04-03T05:23:30.360Z,96218.08
2019-04-03T05:25:57.283Z,96225.94
2019-04-03T05:28:24.898Z,96226.19
2019-04-03T05:30:52.070Z,96239.80
2019-04-03T05:33:18.994Z,96244.52
2019-04-03T05:35:46.586Z,96253.68
2019-04-03T05:38:13.665Z,96252.38
2019-04-03T05:40:40.569Z,96252.38
2019-04-03T05:43:07.498Z,96258.13
2019-04-03T05:45:35.363Z,96256.82
2019-04-03T05:48:02.596Z,96265.46
2019-04-03T05:50:29.535Z,96259.70
2019-04-03T05:52:56.447Z,96256.55
2019-04-03T05:55:23.361Z,96253.94
2019-04-03T05:57:50.271Z,96251.87
2019-04-03T06:00:17.216Z,96245.30
2019-04-03T06:02:44.178Z,96251.33
2019-04-03T06:05:12.701Z,96247.69
2019-04-03T06:07:39.728Z,96253.42
2019-04-03T06:10:06.635Z,96252.48
2019-04-03T06:12:36.528Z,96249.48
2019-04-03T06:15:02.084Z,96253.38
2019-04-03T06:17:29.061Z,96250.86
2019-04-03T06:19:55.976Z,96254.96
2019-04-03T06:22:22.878Z,96259.91
2019-04-03T06:24:49.818Z,96255.45
2019-04-03T06:27:19.050Z,96254.70
2019-04-03T06:29:45.276Z,96257.01
2019-04-03T06:32:12.266Z,96244.99
2019-04-03T06:34:42.405Z,96246.34
2019-04-03T06:37:07.945Z,96241.02
2019-04-03T06:39:34.912Z,96247.36
2019-04-03T06:42:01.851Z,96245.22
2019-04-03T06:44:28.747Z,96237.02
2019-04-03T06:46:55.713Z,96238.78
2019-04-03T06:49:22.670Z,96234.45
2019-04-03T06:51:49.993Z,96227.08
2019-04-03T06:54:17.107Z,96229.58
2019-04-03T06:56:44.025Z,96227.14
2019-04-03T06:59:10.965Z,96220.33
2019-04-03T07:01:37.875Z,96220.64
2019-04-03T07:04:06.451Z,96214.48
2019-04-03T07:06:33.359Z,96207.47
2019-04-03T07:09:00.484Z,96206.98
2019-04-03T07:11:27.560Z,96208.55
2019-04-03T07:13:54.833Z,96206.98
2019-04-03T07:16:21.703Z,96211.20
2019-04-03T07:18:48.611Z,96216.20
2019-04-03T07:21:15.525Z,96217.23
2019-04-03T07:23:42.439Z,96209.92
2019-04-03T07:26:09.381Z,96213.84
2019-04-03T07:28:36.417Z,96216.48
2019-04-03T07:31:03.334Z,96210.20
2019-04-03T07:33:30.260Z,96212.56
2019-04-03T07:35:57.179Z,96210.73
2019-04-03T07:38:24.600Z,96210.47
2019-04-03T07:40:52.391Z,96215.44
2019-04-03T07:43:19.334Z,96212.03
2019-04-03T07:45:46.231Z,96213.60
2019-04-03T07:48:13.137Z,96212.84
2019-04-03T07:50:41.960Z,96212.84
2019-04-03T07:53:08.798Z,96214.94
2019-04-03T07:55:35.651Z,96208.66
2019-04-03T07:58:02.746Z,96206.30
2019-04-03T08:00:29.772Z,96208.91
2019-04-03T08:02:56.951Z,96202.11
2019-04-03T08:05:23.908Z,96156.60
2019-04-03T08:07:50.839Z,96204.98
2019-04-03T08:10:17.757Z,96198.97
2019-04-03T08:12:44.644Z,96191.66
2019-04-03T08:15:13.494Z,96174.66
2019-04-03T08:17:40.610Z,96170.98
2019-04-03T08:20:07.569Z,96169.16
2019-04-03T08:22:34.639Z,96173.38
2019-04-03T08:25:01.608Z,96173.86
2019-04-03T08:27:28.495Z,96173.86
2019-04-03T08:29:55.414Z,96173.86
2019-04-03T08:32:22.317Z,96166.83
2019-04-03T08:34:49.220Z,96167.09
2019-04-03T08:37:28.792Z,96165.78
2019-04-03T08:39:44.732Z,96160.03
2019-04-03T08:42:11.643Z,96161.07
2019-04-03T08:44:38.783Z,96156.88
2019-04-03T08:47:05.664Z,96151.39
2019-04-03T08:49:32.662Z,96156.62
2019-04-03T08:51:59.505Z,96156.62
2019-04-03T08:54:26.407Z,96159.49
2019-04-03T08:56:53.328Z,96151.91
2019-04-03T08:59:20.415Z,96143.53
2019-04-03T09:01:47.348Z,96141.70
2019-04-03T09:04:16.231Z,96136.47
2019-04-03T09:06:42.904Z,96128.36
2019-04-03T09:09:09.763Z,96129.92
2019-04-03T09:11:37.174Z,96125.48
2019-04-03T09:14:04.112Z,96123.64
2019-04-03T09:16:32.117Z,96118.94
2019-04-03T09:18:59.164Z,96119.20
2019-04-03T09:21:26.142Z,96122.07
2019-04-03T09:23:52.996Z,96118.39
2019-04-03T09:26:19.903Z,96115.28
2019-04-03T09:28:47.084Z,96112.64
2019-04-03T09:31:13.984Z,96110.30
2019-04-03T09:33:40.912Z,96105.06
2019-04-03T09:36:07.994Z,96100.63
2019-04-03T09:38:35.960Z,96093.82
2019-04-03T09:41:03.336Z,96089.64
2019-04-03T09:43:30.247Z,96090.16
2019-04-03T09:45:59.323Z,96086.23
2019-04-03T09:48:25.716Z,96083.09
2019-04-03T09:50:52.663Z,96078.13
2019-04-03T09:53:19.689Z,96081.27
2019-04-03T09:55:46.697Z,96077.86
2019-04-03T09:58:13.709Z,96074.72
2019-04-03T10:00:41.911Z,96068.19
2019-04-03T10:03:09.489Z,96056.94
2019-04-03T10:05:36.424Z,96059.28
2019-04-03T10:08:03.596Z,96061.64
2019-04-03T10:10:30.528Z,96051.44
2019-04-03T10:12:57.680Z,96044.90
2019-04-03T10:15:24.915Z,96040.45
2019-04-03T10:17:51.949Z,96039.14
2019-04-03T10:20:19.041Z,96038.61
2019-04-03T10:22:46.000Z,96031.29
2019-04-03T10:25:12.988Z,96032.86
2019-04-03T10:27:42.636Z,96024.48
2019-04-03T10:30:08.531Z,96028.94
2019-04-03T10:32:35.605Z,96019.25
2019-04-03T10:35:02.589Z,96020.81
2019-04-03T10:37:29.544Z,96008.26
2019-04-03T10:39:56.420Z,96003.81
2019-04-03T10:42:23.710Z,96002.50
2019-04-03T10:44:50.660Z,95999.10
2019-04-03T10:47:22.954Z,96008.02
2019-04-03T10:49:47.413Z,96003.81
2019-04-03T10:52:14.507Z,96005.41
2019-04-03T10:54:41.757Z,95988.40
2019-04-03T10:57:08.684Z,95989.70
2019-04-03T10:59:35.957Z,95982.89
2019-04-03T11:02:03.100Z,95979.50
2019-04-03T11:04:30.044Z,95969.28
2019-04-03T11:06:56.976Z,95961.18
2019-04-03T11:09:23.888Z,95952.80
2019-04-03T11:11:51.045Z,95955.95
2019-04-03T11:14:17.966Z,95951.76
2019-04-03T11:16:46.542Z,95950.98
2019-04-03T11:19:13.430Z,95944.96
2019-04-03T11:21:43.232Z,95943.12
2019-04-03T11:24:09.175Z,95939.98
2019-04-03T11:26:36.118Z,95926.65
2019-04-03T11:29:03.143Z,95926.13
2019-04-03T11:31:33.544Z,95918.80
2019-04-03T11:33:58.664Z,95925.07
2019-04-03T11:36:29.527Z,95923.23
2019-04-03T11:39:06.306Z,95919.31
2019-04-03T11:41:23.902Z,95914.33
2019-04-03T11:43:51.428Z,95917.48
2019-04-03T11:46:18.499Z,95907.54
2019-04-03T11:48:47.592Z,95904.92
2019-04-03T11:51:14.142Z,95899.95
2019-04-03T11:53:41.341Z,95891.54
2019-04-03T11:56:08.603Z,95894.91
2019-04-03T11:58:35.591Z,95893.83
2019-04-03T12:01:02.528Z,95888.85
2019-04-03T12:03:29.440Z,95883.11
2019-04-03T12:05:56.370Z,95871.89
2019-04-03T12:08:23.356Z,95872.41
2019-04-03T12:10:50.388Z,95868.23
2019-04-03T12:13:17.861Z,95872.94
2019-04-03T12:15:45.865Z,95867.45
2019-04-03T12:18:12.919Z,95860.64
2019-04-03T12:20:43.790Z,95860.11
2019-04-03T12:23:08.376Z,95855.15
2019-04-03T12:25:38.123Z,95846.52
2019-04-03T12:28:06.673Z,95843.91
2019-04-03T12:30:32.641Z,95840.23
2019-04-03T12:32:59.995Z,95841.54
2019-04-03T12:35:27.226Z,95837.62
2019-04-03T12:37:54.556Z,95833.16
2019-04-03T12:40:21.487Z,95835.78
2019-04-03T12:42:48.379Z,95833.69
2019-04-03T12:45:18.001Z,95844.39
2019-04-03T12:47:44.679Z,95833.12
2019-04-03T12:50:13.440Z,95828.66
2019-04-03T12:52:43.475Z,95823.70
2019-04-03T12:55:09.237Z,95825.55
2019-04-03T12:57:38.795Z,95825.04
2019-04-03T13:00:04.635Z,95820.58
2019-04-03T13:02:31.551Z,95814.30
2019-04-03T13:05:00.751Z,95812.45
2019-04-03T13:07:27.327Z,95802.77
2019-04-03T13:09:54.630Z,95796.76
2019-04-03T13:12:25.913Z,95790.74
2019-04-03T13:14:50.217Z,95792.05
2019-04-03T13:17:17.125Z,95782.89
2019-04-03T13:19:44.073Z,95785.51
2019-04-03T13:22:11.446Z,95779.75
2019-04-03T13:24:38.782Z,95772.67
2019-04-03T13:27:05.712Z,95768.75
2019-04-03T13:29:32.856Z,95764.05
2019-04-03T13:31:59.849Z,95759.59
2019-04-03T13:34:26.753Z,95750.71
2019-04-03T13:36:54.117Z,95741.80
2019-04-03T13:39:21.101Z,95739.97
2019-04-03T13:41:48.219Z,95742.05
2019-04-03T13:44:15.590Z,95732.12
2019-04-03T13:46:42.504Z,95726.10
2019-04-03T13:49:09.455Z,95728.97
2019-04-03T13:51:36.354Z,95728.44
2019-04-03T13:54:06.534Z,95725.83
2019-04-03T13:56:32.423Z,95723.20
2019-04-03T13:58:59.483Z,95721.38
2019-04-03T14:01:28.188Z,95717.97
2019-04-03T14:03:54.959Z,95712.74
2019-04-03T14:06:21.906Z,95702.80
2019-04-03T14:08:48.809Z,95706.73
2019-04-03T14:11:15.726Z,95696.52
2019-04-03T14:13:43.565Z,95694.95
2019-04-03T14:16:20.672Z,95689.44
2019-04-03T14:18:40.754Z,95684.20
2019-04-03T14:21:08.342Z,95673.73
2019-04-03T14:23:35.996Z,95675.05
2019-04-03T14:26:06.968Z,95673.73
2019-04-03T14:28:34.598Z,95670.59
2019-04-03T14:31:00.609Z,95657.76
2019-04-03T14:33:28.030Z,95653.05
2019-04-03T14:35:55.098Z,95647.75
2019-04-03T14:38:22.501Z,95641.17
2019-04-03T14:40:49.444Z,95626.81
2019-04-03T14:43:16.471Z,95630.00
2019-04-03T14:45:45.153Z,95625.05
2019-04-03T14:48:12.030Z,95630.03
2019-04-03T14:50:39.148Z,95630.03
2019-04-03T14:53:06.152Z,95620.87
2019-04-03T14:55:40.357Z,95618.75
2019-04-03T14:58:01.920Z,95620.59
2019-04-03T15:00:31.268Z,95614.83
2019-04-03T15:02:58.634Z,95612.74
2019-04-03T15:05:26.290Z,95607.50
2019-04-03T15:07:53.926Z,95607.50
2019-04-03T15:10:20.858Z,95597.57
2019-04-03T15:12:47.777Z,95597.04
2019-04-03T15:15:14.867Z,95594.42
2019-04-03T15:17:41.818Z,95589.97
2019-04-03T15:20:08.737Z,95591.27
2019-04-03T15:22:35.798Z,95584.48
2019-04-03T15:25:03.110Z,95583.42
2019-04-03T15:27:30.113Z,95581.61
2019-04-03T15:29:57.026Z,95574.27
2019-04-03T15:32:23.947Z,95568.78
2019-04-03T15:34:51.257Z,95575.58
2019-04-03T15:37:18.561Z,95571.65
2019-04-03T15:39:47.387Z,95570.34
2019-04-03T15:42:14.161Z,95567.72
2019-04-03T15:44:41.068Z,95559.38
2019-04-03T15:47:09.386Z,95564.61
2019-04-03T15:49:36.552Z,95561.98
2019-04-03T15:52:03.753Z,95557.25
2019-04-03T15:54:32.543Z,95558.56
2019-04-03T15:56:59.372Z,95556.75
2019-04-03T15:59:28.528Z,95551.52
2019-04-03T16:01:54.932Z,95558.06
2019-04-03T16:04:21.863Z,95548.91
2019-04-03T16:06:48.821Z,95545.75
2019-04-03T16:09:18.300Z,95548.62
2019-04-03T16:11:44.839Z,95544.45
2019-04-03T16:14:11.788Z,95546.00
2019-04-03T16:16:39.139Z,95549.69
2019-04-03T16:19:10.514Z,95541.05
2019-04-03T16:21:35.305Z,95536.59
2019-04-03T16:24:02.711Z,95574.55
2019-04-03T16:26:29.687Z,95543.92
2019-04-03T16:28:57.112Z,95543.14
2019-04-03T16:31:24.891Z,95541.83
2019-04-03T16:33:52.271Z,95538.16
2019-04-03T16:36:19.814Z,95542.61
2019-04-03T16:38:46.922Z,95527.44
2019-04-03T16:41:13.793Z,95534.76
2019-04-03T16:43:40.707Z,95533.98
2019-04-03T16:46:09.783Z,95533.98
2019-04-03T16:48:38.592Z,95527.44
2019-04-03T16:51:05.180Z,95518.28
2019-04-03T16:53:32.248Z,95523.52
2019-04-03T16:55:59.163Z,95513.58
2019-04-03T16:58:27.063Z,95513.29
2019-04-03T17:00:55.059Z,95516.44
2019-04-03T17:03:22.094Z,95524.29
2019-04-03T17:05:49.455Z,95515.13
2019-04-03T17:08:16.368Z,95516.97
2019-04-03T17:10:43.281Z,95518.28
2019-04-03T17:13:10.219Z,95510.42
2019-04-03T17:15:37.140Z,95517.46
2019-04-03T17:18:04.089Z,95517.75
2019-04-03T17:20:31.005Z,95516.44
2019-04-03T17:22:58.167Z,95511.20
2019-04-03T17:25:27.566Z,95507.28
2019-04-03T17:27:57.444Z,95503.88
2019-04-03T17:30:22.511Z,95500.73
2019-04-03T17:32:49.496Z,95505.20
2019-04-03T17:35:16.464Z,95511.20
2019-04-03T17:37:43.485Z,95509.61
2019-04-03T17:40:10.387Z,95509.37
2019-04-03T17:42:39.258Z,95500.20
2019-04-03T17:45:05.884Z,95489.20
2019-04-03T17:47:32.828Z,95498.89
2019-04-03T17:49:59.901Z,95491.58
2019-04-03T17:52:26.947Z,95499.67
2019-04-03T17:54:53.902Z,95504.66
2019-04-03T17:57:20.816Z,95506.75
2019-04-03T17:59:49.467Z,95501.23
2019-04-03T18:02:16.312Z,95513.25
2019-04-03T18:04:43.288Z,95517.95
2019-04-03T18:07:12.082Z,95515.13
2019-04-03T18:09:38.755Z,95515.91
2019-04-03T18:12:05.664Z,95513.50
2019-04-03T18:14:32.580Z,95518.53
2019-04-03T18:17:01.147Z,95522.22
2019-04-03T18:19:37.448Z,95512.56
2019-04-03T18:21:56.655Z,95525.89
2019-04-03T18:24:23.771Z,95514.16
2019-04-03T18:26:50.689Z,95510.52
2019-04-03T18:29:17.599Z,95516.24
2019-04-03T18:31:45.162Z,95519.42
2019-04-03T18:34:12.136Z,95520.73
2019-04-03T18:36:39.035Z,95514.72
2019-04-03T18:39:06.022Z,95510.19
2019-04-03T18:41:32.940Z,95519.23
2019-04-03T18:43:59.838Z,95513.38
2019-04-03T18:46:32.317Z,95508.47
2019-04-03T18:49:00.785Z,95512.08
2019-04-03T18:51:23.851Z,95517.63
2019-04-03T18:53:50.818Z,95521.72
2019-04-03T18:56:17.705Z,95524.83
2019-04-03T18:58:44.607Z,95526.38
2019-04-03T19:01:11.531Z,95528.75
2019-04-03T19:03:38.449Z,95532.67
2019-04-03T19:06:05.358Z,95543.39
2019-04-03T19:08:32.308Z,95545.48
2019-04-03T19:11:02.724Z,95555.38
2019-04-03T19:13:27.872Z,95564.25
2019-04-03T19:15:54.786Z,95573.91
2019-04-03T19:18:21.729Z,95594.31
2019-04-03T19:20:48.656Z,95602.17
2019-04-03T19:23:15.579Z,95606.62
2019-04-03T19:25:42.509Z,95588.05
2019-04-03T19:28:09.445Z,95599.30
2019-04-03T19:30:38.029Z,95611.61
2019-04-03T19:33:04.981Z,95625.47
2019-04-03T19:35:31.951Z,95635.16
2019-04-03T19:37:58.866Z,95640.40
2019-04-03T19:40:25.749Z,95645.88
2019-04-03T19:42:52.685Z,95646.94
2019-04-03T19:45:21.337Z,95659.50
2019-04-03T19:47:48.445Z,95667.10
2019-04-03T19:50:15.350Z,95666.82
2019-04-03T19:52:42.501Z,95682.52
2019-04-03T19:55:09.534Z,95687.52
2019-04-03T19:57:36.487Z,95684.89
2019-04-03T20:00:03.795Z,95695.36
2019-04-03T20:02:31.057Z,95705.30
2019-04-03T20:04:58.927Z,95707.92
2019-04-03T20:07:26.771Z,95723.63
2019-04-03T20:09:54.283Z,95730.17
2019-04-03T20:12:21.197Z,95745.88
2019-04-03T20:14:57.924Z,95734.88
2019-04-03T20:17:16.702Z,95743.26
2019-04-03T20:19:43.641Z,95746.13
2019-04-03T20:22:10.571Z,95748.48
2019-04-03T20:24:37.493Z,95757.13
2019-04-03T20:27:04.421Z,95768.13
2019-04-03T20:29:31.921Z,95782.77
2019-04-03T20:31:58.935Z,95793.77
2019-04-03T20:34:25.860Z,95812.09
2019-04-03T20:36:54.827Z,95833.28
2019-04-03T20:39:21.346Z,95840.36
2019-04-03T20:41:48.297Z,95845.31
2019-04-03T20:44:17.458Z,95850.83
2019-04-03T20:46:44.045Z,95857.37
2019-04-03T20:49:10.964Z,95859.45
2019-04-03T20:51:38.028Z,95869.92
2019-04-03T20:54:06.506Z,95871.77
2019-04-03T20:56:34.269Z,95887.47
2019-04-03T20:59:01.235Z,95876.47
2019-04-03T21:01:28.176Z,95875.16
2019-04-03T21:03:55.138Z,95874.38
2019-04-03T21:06:22.020Z,95890.87
2019-04-03T21:08:48.966Z,95896.10
2019-04-03T21:11:15.953Z,95893.23
2019-04-03T21:13:42.841Z,95881.70
2019-04-03T21:16:09.784Z,95891.39
2019-04-03T21:18:36.712Z,95896.62
2019-04-03T21:21:03.649Z,95904.73
2019-04-03T21:23:33.275Z,95917.30
2019-04-03T21:25:59.153Z,95914.42
2019-04-03T21:28:26.087Z,95912.59
2019-04-03T21:30:53.087Z,95917.57
2019-04-03T21:33:21.570Z,95921.75
2019-04-03T21:35:48.472Z,95921.75
2019-04-03T21:38:15.414Z,95917.05
2019-04-03T21:40:42.344Z,95921.75
2019-04-03T21:43:09.293Z,95916.27
2019-04-03T21:45:38.424Z,95918.35
2019-04-03T21:48:04.805Z,95926.98
2019-04-03T21:50:31.752Z,95927.52
2019-04-03T21:52:58.695Z,95928.05
2019-04-03T21:55:25.617Z,95932.22
2019-04-03T21:57:52.523Z,95930.13
2019-04-03T22:00:21.091Z,95935.37
2019-04-03T22:02:49.813Z,95939.82
2019-04-03T22:05:16.588Z,95950.55
2019-04-03T22:07:43.493Z,95950.30
2019-04-03T22:10:10.422Z,95943.75
2019-04-03T22:12:37.509Z,95941.13
2019-04-03T22:15:04.498Z,95943.22
2019-04-03T22:17:31.404Z,95940.59
2019-04-03T22:19:58.712Z,95941.91
2019-04-03T22:22:26.272Z,95939.82
2019-04-03T22:24:53.197Z,95938.52
2019-04-03T22:27:20.116Z,95935.89
2019-04-03T22:29:47.039Z,95932.50
2019-04-03T22:32:13.936Z,95927.79
2019-04-03T22:34:40.869Z,95925.42
2019-04-03T22:37:07.759Z,95919.94
2019-04-03T22:39:34.705Z,95915.73
2019-04-03T22:42:01.624Z,95908.69
2019-04-03T22:44:28.548Z,95909.99
2019-04-03T22:46:55.470Z,95913.39
2019-04-03T22:49:22.387Z,95911.55
2019-04-03T22:51:49.327Z,95911.55
2019-04-03T22:54:16.259Z,95908.94
2019-04-03T22:56:43.204Z,95905.27
2019-04-03T22:59:10.124Z,95891.92
2019-04-03T23:01:37.066Z,95889.83
2019-04-03T23:04:05.310Z,95895.84
2019-04-03T23:06:32.582Z,95907.10
2019-04-03T23:08:59.525Z,95897.69
2019-04-03T23:11:26.437Z,95906.32
2019-04-03T23:13:53.376Z,95905.27
2019-04-03T23:16:20.351Z,95897.16
2019-04-03T23:18:47.520Z,95896.62
2019-04-03T23:21:14.624Z,95890.61
2019-04-03T23:23:41.616Z,95885.63
2019-04-03T23:26:08.541Z,95882.77
2019-04-03T23:28:35.466Z,95883.29
2019-04-03T23:31:02.352Z,95880.67
2019-04-03T23:33:29.347Z,95873.07
2019-04-03T23:35:56.301Z,95874.38
2019-04-03T23:38:24.779Z,95870.20
2019-04-03T23:40:51.807Z,95876.22
2019-04-03T23:43:18.819Z,95869.67
2019-04-03T23:45:45.759Z,95874.91
2019-04-03T23:48:12.680Z,95870.73
2019-04-03T23:50:39.661Z,95874.38
2019-04-03T23:53:06.604Z,95876.22
2019-04-03T23:55:35.952Z,95875.44
2019-04-03T23:58:02.104Z,95872.82
